Time;durP1;ratioP1;P1;durP2;ratioP2;P2;SDS_P1;SDS_P2;PMS_P1;PMS_P2;Temp;Humidity;BMP_temperature;BMP_pressure;BME280_temperature;BME280_humidity;BME280_pressure;Samples;Min_cycle;Max_cycle;Signal;HPM_P1;HPM_P2
2021/08/27 00:00:04;;;;;;;10.05;5.47;;;;;;;17.06;75.63;101910.03;5034883;28;20037;-83
2021/08/27 00:02:31;;;;;;;9.52;5.03;;;;;;;17.05;75.43;101911.19;5031561;28;20041;-82
2021/08/27 00:04:58;;;;;;;10.20;5.07;;;;;;;16.93;75.59;101914.91;5045281;28;20044;-82
2021/08/27 00:07:25;;;;;;;10.38;5.40;;;;;;;16.94;75.62;101912.91;5048652;28;20048;-82
2021/08/27 00:09:51;;;;;;;7.28;4.40;;;;;;;16.94;75.40;101912.91;5047092;28;20037;-83
2021/08/27 00:12:18;;;;;;;10.32;4.95;;;;;;;16.96;75.31;101913.38;5038962;28;20132;-83
2021/08/27 00:14:45;;;;;;;15.02;6.03;;;;;;;16.89;75.59;101902.00;5053143;28;20048;-82
2021/08/27 00:17:12;;;;;;;9.98;5.43;;;;;;;16.85;75.53;101906.66;5046697;28;20041;-83
2021/08/27 00:19:39;;;;;;;9.85;5.32;;;;;;;16.78;75.96;101901.72;5050257;28;20040;-82
2021/08/27 00:22:06;;;;;;;8.63;4.07;;;;;;;16.75;75.94;101908.03;5045840;28;20043;-83
2021/08/27 00:24:33;;;;;;;9.70;4.78;;;;;;;16.68;76.19;101901.44;5026763;28;20131;-83
2021/08/27 00:27:01;;;;;;;10.10;5.13;;;;;;;16.67;76.09;101910.97;5049621;28;20033;-82
2021/08/27 00:29:27;;;;;;;9.02;4.55;;;;;;;16.65;76.30;101905.75;5047363;28;20047;-83
2021/08/27 00:31:54;;;;;;;8.40;4.68;;;;;;;16.63;76.35;101907.25;5038104;28;20037;-82
2021/08/27 00:34:21;;;;;;;11.07;5.22;;;;;;;16.64;76.17;101909.72;5032793;28;20049;-82
2021/08/27 00:36:48;;;;;;;9.60;5.40;;;;;;;16.63;75.91;101905.28;5045743;28;20044;-83
2021/08/27 00:39:14;;;;;;;11.45;5.65;;;;;;;16.62;76.02;101902.84;5031344;28;20052;-82
2021/08/27 00:41:41;;;;;;;9.18;5.38;;;;;;;16.62;76.20;101905.66;5051672;28;20051;-83
2021/08/27 00:44:08;;;;;;;11.27;5.63;;;;;;;16.61;76.25;101895.63;5052108;28;20040;-83
2021/08/27 00:46:34;;;;;;;9.25;4.93;;;;;;;16.59;76.30;101903.56;5051246;28;20479;-83
2021/08/27 00:49:01;;;;;;;10.20;5.25;;;;;;;16.61;76.11;101906.81;5057588;28;20337;-83
2021/08/27 00:51:28;;;;;;;12.25;5.85;;;;;;;16.58;76.20;101897.16;5040217;28;21865;-83
2021/08/27 00:53:55;;;;;;;11.73;5.28;;;;;;;16.60;76.05;101894.03;5035423;28;20034;-83
2021/08/27 00:56:21;;;;;;;13.77;5.78;;;;;;;16.61;75.77;101895.63;5040159;28;20033;-82
2021/08/27 00:58:48;;;;;;;11.95;5.75;;;;;;;16.59;75.77;101892.38;5053116;28;20061;-82
2021/08/27 01:01:17;;;;;;;12.93;7.40;;;;;;;16.52;75.88;101887.38;5049152;28;20060;-83
2021/08/27 01:03:44;;;;;;;11.30;5.72;;;;;;;16.54;75.82;101887.06;5059973;28;20047;-82
2021/08/27 01:06:37;;;;;;;12.40;5.30;;;;;;;16.44;76.39;101883.56;5048045;28;20049;-83
2021/08/27 01:09:09;;;;;;;13.05;6.05;;;;;;;16.36;76.48;101873.34;5049173;28;20099;-82
2021/08/27 01:11:41;;;;;;;16.58;5.95;;;;;;;16.33;76.51;101874.09;5045596;28;20029;-83
2021/08/27 01:14:28;;;;;;;9.90;5.45;;;;;;;16.27;77.04;101875.50;5062039;28;20043;-82
2021/08/27 01:17:03;;;;;;;6.72;4.78;;;;;;;16.23;77.10;101880.19;5049139;28;20411;-83
2021/08/27 01:20:07;;;;;;;9.63;5.43;;;;;;;16.29;76.95;101872.34;5066728;28;20041;-82
2021/08/27 01:23:00;;;;;;;9.40;4.65;;;;;;;16.28;76.70;101865.16;5039654;28;20128;-83
2021/08/27 01:25:30;;;;;;;9.15;5.50;;;;;;;16.25;76.67;101863.88;5038997;28;20041;-83
2021/08/27 01:27:59;;;;;;;10.05;4.63;;;;;;;16.22;76.87;101872.16;5051793;28;20043;-82
2021/08/27 01:31:07;;;;;;;10.80;5.15;;;;;;;16.13;77.13;101880.69;5068285;28;20083;-82
2021/08/27 01:33:40;;;;;;;11.32;5.53;;;;;;;16.19;76.88;101872.88;5066807;28;20045;-82
2021/08/27 01:36:08;;;;;;;13.68;5.60;;;;;;;16.16;76.92;101868.00;5066006;28;20033;-82
2021/08/27 01:38:37;;;;;;;11.35;6.13;;;;;;;16.10;77.02;101870.22;5051731;28;20041;-82
2021/08/27 01:41:10;;;;;;;9.82;4.82;;;;;;;16.05;76.93;101873.28;5051259;28;20036;-83
2021/08/27 01:43:40;;;;;;;8.10;4.75;;;;;;;16.12;76.83;101883.84;5060560;28;20044;-83
2021/08/27 01:46:07;;;;;;;10.43;5.22;;;;;;;16.07;76.65;101882.09;5062935;28;20029;-82
2021/08/27 01:48:38;;;;;;;10.93;5.93;;;;;;;16.00;76.94;101879.13;5043597;28;20040;-82
2021/08/27 01:51:09;;;;;;;13.07;5.20;;;;;;;15.95;76.99;101879.38;5041027;28;20036;-82
2021/08/27 01:53:37;;;;;;;12.00;5.47;;;;;;;15.89;77.15;101886.34;5063402;28;20049;-82
2021/08/27 01:56:07;;;;;;;14.15;6.18;;;;;;;15.91;77.06;101886.84;5053348;28;20033;-82
2021/08/27 01:58:35;;;;;;;8.55;5.22;;;;;;;15.86;77.24;101892.66;5049986;28;20045;-82
2021/08/27 02:01:03;;;;;;;10.77;5.63;;;;;;;15.82;77.21;101886.16;5050296;28;20120;-82
2021/08/27 02:03:32;;;;;;;9.88;5.53;;;;;;;15.78;77.70;101888.00;5045264;28;20468;-83
2021/08/27 02:06:00;;;;;;;12.20;5.43;;;;;;;15.81;77.22;101892.88;5044536;28;20061;-82
2021/08/27 02:08:29;;;;;;;13.35;6.32;;;;;;;15.82;77.05;101883.38;5065635;28;20044;-82
2021/08/27 02:10:56;;;;;;;10.95;5.70;;;;;;;15.78;77.07;101880.44;5058791;28;20075;-83
2021/08/27 02:13:23;;;;;;;11.43;5.90;;;;;;;15.77;77.50;101880.81;5046295;28;20148;-82
2021/08/27 02:15:51;;;;;;;9.80;5.57;;;;;;;15.74;77.26;101884.31;5049617;28;20514;-82
2021/08/27 02:18:18;;;;;;;11.15;4.93;;;;;;;15.72;77.29;101883.84;5052785;28;20123;-82
2021/08/27 02:20:44;;;;;;;8.70;4.85;;;;;;;15.76;77.07;101884.75;5061569;28;20309;-83
2021/08/27 02:23:13;;;;;;;12.70;5.47;;;;;;;15.72;77.13;101889.44;5042218;28;20514;-83
2021/08/27 02:25:46;;;;;;;12.63;5.97;;;;;;;15.70;77.25;101891.78;5050385;28;20078;-83
2021/08/27 02:28:14;;;;;;;10.60;6.18;;;;;;;15.69;77.31;101887.34;5049822;28;20033;-82
2021/08/27 02:30:42;;;;;;;12.73;6.18;;;;;;;15.77;77.14;101886.41;5040360;28;20083;-83
2021/08/27 02:33:11;;;;;;;10.52;6.32;;;;;;;15.83;77.28;101876.63;5059590;28;20038;-83
2021/08/27 02:35:39;;;;;;;12.73;6.30;;;;;;;15.84;77.38;101878.22;5041557;28;20049;-82
2021/08/27 02:38:12;;;;;;;10.40;7.28;;;;;;;15.81;77.66;101879.75;5050291;28;20041;-82
2021/08/27 02:40:38;;;;;;;14.90;7.05;;;;;;;15.85;77.58;101888.25;5052101;28;20047;-82
2021/08/27 02:43:05;;;;;;;13.30;7.75;;;;;;;15.89;77.69;101891.13;5054776;28;20529;-83
2021/08/27 02:45:32;;;;;;;16.95;8.32;;;;;;;15.88;77.87;101889.53;5049638;28;20124;-83
2021/08/27 02:47:59;;;;;;;18.52;8.32;;;;;;;15.87;78.09;101877.53;5053166;28;20091;-82
2021/08/27 02:50:28;;;;;;;13.20;6.07;;;;;;;15.88;78.25;101873.56;5040778;28;20045;-82
2021/08/27 02:52:56;;;;;;;12.07;7.47;;;;;;;15.90;78.39;101882.41;5030779;28;20072;-82
2021/08/27 02:55:31;;;;;;;12.82;7.03;;;;;;;15.94;78.63;101883.31;5036938;28;20033;-82
2021/08/27 02:58:32;;;;;;;13.52;7.13;;;;;;;16.00;78.88;101881.09;5050446;28;20472;-82
2021/08/27 03:01:09;;;;;;;14.15;7.63;;;;;;;16.07;78.62;101873.72;5024828;28;20053;-82
2021/08/27 03:03:39;;;;;;;19.88;9.95;;;;;;;16.14;78.42;101882.31;5032831;28;20423;-83
2021/08/27 03:06:15;;;;;;;16.63;8.30;;;;;;;16.17;78.77;101876.03;5044629;28;20045;-82
2021/08/27 03:08:46;;;;;;;14.98;7.97;;;;;;;16.22;78.57;101881.38;5048481;28;20091;-82
2021/08/27 03:11:16;;;;;;;14.43;9.33;;;;;;;16.21;78.60;101882.53;5052250;28;20090;-83
2021/08/27 03:14:09;;;;;;;15.05;7.20;;;;;;;16.21;78.69;101890.09;5050730;28;20037;-83
2021/08/27 03:16:41;;;;;;;16.20;9.38;;;;;;;16.19;78.82;101900.81;5064222;28;20502;-82
2021/08/27 03:19:16;;;;;;;14.85;7.75;;;;;;;16.18;79.00;101891.59;5039903;28;20075;-83
2021/08/27 03:22:03;;;;;;;19.42;8.98;;;;;;;16.23;79.20;101896.94;5051421;28;20460;-82
2021/08/27 03:24:39;;;;;;;29.02;9.32;;;;;;;16.24;78.86;101890.19;5055769;28;20047;-83
2021/08/27 03:27:14;;;;;;;62.10;11.35;;;;;;;16.20;79.00;101886.47;5060423;28;20131;-82
2021/08/27 03:29:50;;;;;;;35.60;10.50;;;;;;;16.17;79.18;101887.22;5044411;28;20037;-82
2021/08/27 03:32:18;;;;;;;16.70;9.45;;;;;;;16.15;79.02;101889.53;5038184;28;20040;-83
2021/08/27 03:34:45;;;;;;;16.85;7.97;;;;;;;16.13;79.17;101883.50;5048786;28;20049;-82
2021/08/27 03:37:13;;;;;;;58.35;8.65;;;;;;;16.09;79.35;101879.78;5050667;28;20044;-83
2021/08/27 03:39:41;;;;;;;23.15;8.82;;;;;;;16.08;79.47;101885.72;5040757;28;20038;-83
2021/08/27 03:42:09;;;;;;;36.63;8.25;;;;;;;16.01;79.53;101875.16;5041061;28;20056;-82
2021/08/27 03:44:37;;;;;;;54.58;9.73;;;;;;;15.99;79.89;101874.69;5040368;28;20033;-83
2021/08/27 03:47:05;;;;;;;44.60;9.40;;;;;;;15.97;79.88;101871.44;5035364;28;20056;-83
2021/08/27 03:49:33;;;;;;;39.00;10.07;;;;;;;15.95;80.15;101873.78;5065692;28;20047;-82
2021/08/27 03:52:01;;;;;;;49.53;10.82;;;;;;;15.97;80.18;101868.66;5049207;28;20070;-82
2021/08/27 03:54:28;;;;;;;56.95;12.32;;;;;;;15.94;80.28;101866.56;5045512;28;20456;-82
2021/08/27 03:56:55;;;;;;;42.38;11.32;;;;;;;15.92;80.48;101873.66;5053438;28;20052;-82
2021/08/27 03:59:23;;;;;;;51.25;12.60;;;;;;;15.88;80.63;101879.16;5044797;28;20033;-82
2021/08/27 04:01:50;;;;;;;33.72;11.45;;;;;;;15.88;80.72;101872.75;5046300;28;20039;-82
2021/08/27 04:04:19;;;;;;;33.95;11.13;;;;;;;15.86;80.93;101877.91;5049276;28;20472;-82
2021/08/27 04:07:12;;;;;;;22.42;10.65;;;;;;;15.84;81.40;101869.84;5049614;28;20056;-82
2021/08/27 04:09:39;;;;;;;55.05;14.18;;;;;;;15.83;80.80;101882.22;5063068;28;20498;-82
2021/08/27 04:12:06;;;;;;;30.50;12.35;;;;;;;15.84;81.11;101872.63;5049965;28;20056;-82
2021/08/27 04:14:33;;;;;;;35.50;12.68;;;;;;;15.78;81.39;101868.47;5049195;28;20045;-83
2021/08/27 04:17:01;;;;;;;42.63;13.25;;;;;;;15.72;81.65;101864.31;5046392;28;20038;-83
2021/08/27 04:19:28;;;;;;;34.95;14.75;;;;;;;15.66;81.62;101874.91;5065348;28;20062;-82
2021/08/27 04:21:55;;;;;;;30.67;12.98;;;;;;;15.72;81.50;101870.72;5044766;28;20045;-82
2021/08/27 04:24:24;;;;;;;45.58;15.73;;;;;;;15.75;81.68;101869.19;5035225;28;20029;-82
2021/08/27 04:26:51;;;;;;;44.97;16.20;;;;;;;15.71;81.90;101871.88;5066813;28;20037;-82
2021/08/27 04:29:18;;;;;;;54.53;16.13;;;;;;;15.69;82.16;101867.81;5049779;28;20045;-82
2021/08/27 04:31:45;;;;;;;30.00;13.82;;;;;;;15.69;82.07;101876.19;5058488;28;20044;-82
2021/08/27 04:34:11;;;;;;;33.20;13.20;;;;;;;15.70;82.12;101875.03;5048041;28;20045;-82
2021/08/27 04:36:38;;;;;;;33.20;13.15;;;;;;;15.69;82.30;101867.81;5059232;28;20454;-82
2021/08/27 04:39:06;;;;;;;41.60;12.25;;;;;;;15.65;82.44;101864.06;5050864;28;20506;-83
2021/08/27 04:41:33;;;;;;;31.17;13.32;;;;;;;15.60;82.38;101859.56;5048246;28;20044;-82
2021/08/27 04:43:59;;;;;;;39.33;14.57;;;;;;;15.61;82.69;101871.53;5058752;28;20047;-82
2021/08/27 04:46:26;;;;;;;33.13;12.65;;;;;;;15.59;82.74;101863.53;5044167;28;20037;-82
2021/08/27 04:48:53;;;;;;;34.30;13.25;;;;;;;15.62;82.68;101875.97;5044669;28;20380;-82
2021/08/27 04:51:20;;;;;;;45.53;12.93;;;;;;;15.67;82.60;101872.94;5058578;28;20049;-83
2021/08/27 04:53:46;;;;;;;40.30;14.63;;;;;;;15.72;82.72;101881.06;5046015;28;20121;-83
2021/08/27 04:56:13;;;;;;;35.35;13.52;;;;;;;15.73;83.01;101877.91;5043748;28;20037;-82
2021/08/27 04:58:40;;;;;;;44.83;13.63;;;;;;;15.74;82.83;101879.53;5049488;28;20040;-82
2021/08/27 05:01:07;;;;;;;35.35;13.82;;;;;;;15.81;83.04;101892.88;5036680;28;20030;-82
2021/08/27 05:03:35;;;;;;;30.67;13.57;;;;;;;15.84;82.88;101890.22;5050240;28;20546;-82
2021/08/27 05:06:03;;;;;;;28.42;12.57;;;;;;;15.89;83.04;101891.13;5046243;28;20478;-82
2021/08/27 05:08:29;;;;;;;29.85;13.60;;;;;;;15.90;82.99;101895.56;5046344;28;20032;-82
2021/08/27 05:10:56;;;;;;;29.00;13.77;;;;;;;15.92;83.01;101891.25;5064028;28;20048;-82
2021/08/27 05:13:23;;;;;;;26.10;13.52;;;;;;;15.89;82.91;101896.72;5050564;28;20047;-83
2021/08/27 05:15:50;;;;;;;24.40;11.40;;;;;;;15.83;82.84;101904.53;5043017;28;20030;-81
2021/08/27 05:18:19;;;;;;;25.73;10.73;;;;;;;15.80;82.60;101905.25;5032282;28;20049;-82
2021/08/27 05:20:46;;;;;;;17.15;10.48;;;;;;;15.81;82.95;101907.69;5047430;28;20056;-82
2021/08/27 05:23:13;;;;;;;16.23;9.73;;;;;;;15.85;82.86;101907.78;5044651;28;20048;-81
2021/08/27 05:25:40;;;;;;;23.65;11.68;;;;;;;15.85;82.97;101913.38;5033614;28;20079;-81
2021/08/27 05:28:06;;;;;;;17.35;9.88;;;;;;;15.82;82.89;101914.06;5034980;28;20069;-81
2021/08/27 05:30:33;;;;;;;23.50;11.00;;;;;;;15.81;83.00;101918.03;5032010;28;20045;-81
2021/08/27 05:33:00;;;;;;;18.83;10.57;;;;;;;15.81;82.86;101918.03;5030241;28;20047;-81
2021/08/27 05:35:30;;;;;;;18.75;9.85;;;;;;;15.84;83.00;101917.31;5039230;28;20079;-80
2021/08/27 05:37:56;;;;;;;19.83;9.80;;;;;;;15.90;83.00;101918.72;5038560;28;20040;-81
2021/08/27 05:40:23;;;;;;;17.52;10.00;;;;;;;15.96;83.10;101919.28;5044236;28;20601;-81
2021/08/27 05:42:50;;;;;;;20.95;10.77;;;;;;;15.99;82.99;101922.16;5041840;28;20508;-81
2021/08/27 05:45:18;;;;;;;21.90;10.82;;;;;;;16.02;82.89;101926.25;5046175;28;20395;-81
2021/08/27 05:47:45;;;;;;;17.77;9.65;;;;;;;16.07;82.92;101915.63;5048120;28;20047;-81
2021/08/27 05:50:15;;;;;;;22.20;10.90;;;;;;;16.07;82.83;101915.63;5047478;28;20094;-81
2021/08/27 05:52:44;;;;;;;23.73;11.60;;;;;;;16.05;82.91;101919.94;5027670;28;20044;-81
2021/08/27 05:55:11;;;;;;;19.33;10.27;;;;;;;16.03;82.96;101931.47;5040703;28;20039;-81
2021/08/27 05:57:38;;;;;;;19.33;11.07;;;;;;;16.07;82.84;101931.59;5055166;28;20123;-81
2021/08/27 06:00:08;;;;;;;21.13;11.07;;;;;;;16.05;82.79;101934.72;5047239;28;20465;-80
2021/08/27 06:02:35;;;;;;;21.80;10.50;;;;;;;16.08;82.79;101934.03;5047504;28;20060;-81
2021/08/27 06:05:02;;;;;;;19.75;10.73;;;;;;;16.12;82.65;101946.13;5050577;28;20395;-81
2021/08/27 06:07:29;;;;;;;21.95;11.43;;;;;;;16.12;82.76;101945.31;5037678;28;20044;-80
2021/08/27 06:09:56;;;;;;;19.58;11.40;;;;;;;16.13;82.66;101944.94;5048090;28;20045;-81
2021/08/27 06:12:22;;;;;;;19.70;10.70;;;;;;;16.19;82.93;101951.09;5047612;28;20045;-80
2021/08/27 06:14:49;;;;;;;20.60;9.88;;;;;;;16.25;82.78;101942.13;5037937;28;20037;-81
2021/08/27 06:17:16;;;;;;;17.13;9.73;;;;;;;16.32;82.81;101950.72;5058942;28;20041;-81
2021/08/27 06:19:44;;;;;;;21.60;9.93;;;;;;;16.34;82.67;101948.38;5062102;28;20083;-81
2021/08/27 06:22:10;;;;;;;14.75;9.38;;;;;;;16.36;82.55;101951.63;5033768;28;20061;-80
2021/08/27 06:24:37;;;;;;;18.67;9.48;;;;;;;16.37;82.60;101946.84;5050609;28;20477;-81
2021/08/27 06:27:04;;;;;;;18.95;9.30;;;;;;;16.40;82.72;101955.34;5048745;28;20481;-81
2021/08/27 06:29:33;;;;;;;20.80;9.90;;;;;;;16.45;82.37;101952.28;5052312;28;20053;-81
2021/08/27 06:31:59;;;;;;;14.95;9.10;;;;;;;16.49;82.17;101969.19;5058350;28;20383;-81
2021/08/27 06:34:26;;;;;;;16.38;8.77;;;;;;;16.48;82.15;101964.75;5062884;28;20056;-80
2021/08/27 06:36:53;;;;;;;19.88;10.48;;;;;;;16.44;81.99;101963.84;5034527;28;20051;-81
2021/08/27 06:39:20;;;;;;;20.45;10.23;;;;;;;16.51;81.92;101966.84;5032440;28;20069;-81
2021/08/27 06:41:47;;;;;;;16.73;8.70;;;;;;;16.57;81.87;101967.44;5050735;28;20048;-81
2021/08/27 06:44:14;;;;;;;15.15;8.68;;;;;;;16.57;81.92;101962.66;5057052;28;20039;-81
2021/08/27 06:46:43;;;;;;;19.13;10.70;;;;;;;16.56;81.85;101960.19;5044703;28;20033;-81
2021/08/27 06:49:11;;;;;;;20.35;11.35;;;;;;;16.57;82.01;101967.44;5039425;28;20051;-81
2021/08/27 06:51:39;;;;;;;18.73;10.32;;;;;;;16.63;81.95;101977.16;5070286;28;20371;-82
2021/08/27 06:54:06;;;;;;;21.60;9.80;;;;;;;16.67;81.72;101975.31;5046488;28;20483;-81
2021/08/27 06:56:33;;;;;;;18.02;9.63;;;;;;;16.64;81.53;101964.81;5045411;28;20093;-81
2021/08/27 06:59:00;;;;;;;18.95;9.98;;;;;;;16.67;81.55;101972.50;5069196;28;20033;-81
2021/08/27 07:01:27;;;;;;;21.05;10.45;;;;;;;16.74;81.61;101984.69;5052040;28;20055;-82
2021/08/27 07:03:55;;;;;;;17.85;9.55;;;;;;;16.87;81.70;101977.06;5051725;28;20154;-82
2021/08/27 07:06:23;;;;;;;18.48;9.57;;;;;;;17.03;81.49;101975.09;5056826;28;20048;-81
2021/08/27 07:08:50;;;;;;;18.92;9.27;;;;;;;17.11;81.20;101979.72;5050348;28;20146;-81
2021/08/27 07:11:17;;;;;;;18.70;9.35;;;;;;;17.10;80.97;101980.91;5047719;28;20068;-81
2021/08/27 07:13:44;;;;;;;21.63;10.07;;;;;;;17.01;80.79;101975.47;5051987;28;20045;-81
2021/08/27 07:16:12;;;;;;;22.88;9.80;;;;;;;16.98;80.99;101978.97;5043138;28;20045;-82
2021/08/27 07:18:42;;;;;;;20.65;9.65;;;;;;;16.96;81.04;101986.91;5057886;28;20479;-81
2021/08/27 07:21:09;;;;;;;18.00;9.25;;;;;;;16.97;81.07;101982.16;5052063;28;20033;-81
2021/08/27 07:23:36;;;;;;;16.45;9.93;;;;;;;17.04;80.95;101985.13;5048666;28;20045;-82
2021/08/27 07:26:03;;;;;;;15.45;8.10;;;;;;;17.11;81.12;101988.09;5052024;28;20045;-81
2021/08/27 07:28:29;;;;;;;16.13;9.48;;;;;;;17.11;80.59;101985.31;5048947;28;20037;-81
2021/08/27 07:30:56;;;;;;;21.20;10.50;;;;;;;17.09;80.48;101984.84;5055389;28;20060;-81
2021/08/27 07:33:23;;;;;;;21.48;10.70;;;;;;;17.12;80.14;101981.34;5034540;28;20049;-81
2021/08/27 07:35:50;;;;;;;20.63;9.90;;;;;;;17.15;80.22;101983.44;5055288;28;20044;-81
2021/08/27 07:38:17;;;;;;;19.73;8.50;;;;;;;17.18;80.15;101984.69;5054154;28;20479;-82
2021/08/27 07:40:43;;;;;;;22.80;9.45;;;;;;;17.21;80.02;101987.56;5048381;28;20383;-86
2021/08/27 07:43:10;;;;;;;17.52;8.88;;;;;;;17.21;79.86;101993.16;5052632;28;20053;-83
2021/08/27 07:45:37;;;;;;;16.70;8.77;;;;;;;17.21;79.23;101997.97;5061731;28;20037;-86
2021/08/27 07:48:06;;;;;;;30.65;9.38;;;;;;;17.18;79.51;101987.50;5049531;28;20491;-85
2021/08/27 07:50:33;;;;;;;16.58;9.23;;;;;;;17.21;79.55;101993.16;5066772;28;20051;-85
2021/08/27 07:53:00;;;;;;;17.20;7.85;;;;;;;17.31;79.38;102003.84;5050726;28;20361;-85
2021/08/27 07:55:27;;;;;;;13.88;7.22;;;;;;;17.32;78.88;101994.25;5059449;28;20160;-85
2021/08/27 07:57:53;;;;;;;19.23;7.85;;;;;;;17.37;78.73;102002.38;5061563;28;20036;-86
2021/08/27 08:00:20;;;;;;;18.10;7.97;;;;;;;17.34;78.14;102003.09;5051920;28;20045;-86
2021/08/27 08:02:47;;;;;;;19.45;7.07;;;;;;;17.43;78.51;102003.75;5053765;28;20039;-84
2021/08/27 08:05:14;;;;;;;12.25;7.40;;;;;;;17.61;78.48;101996.63;5052146;28;20055;-86
2021/08/27 08:07:41;;;;;;;12.32;6.00;;;;;;;17.81;78.33;101999.50;5053768;28;20089;-86
2021/08/27 08:10:08;;;;;;;9.90;5.45;;;;;;;17.89;78.16;102007.72;5052126;28;20388;-86
2021/08/27 08:12:35;;;;;;;10.05;5.70;;;;;;;17.97;77.99;102006.72;5061503;28;20037;-86
2021/08/27 08:15:02;;;;;;;13.20;5.78;;;;;;;18.04;77.42;102011.66;5050998;28;20049;-82
2021/08/27 08:17:28;;;;;;;9.88;6.15;;;;;;;18.06;76.63;102006.50;5052155;28;20052;-93
2021/08/27 08:19:55;;;;;;;17.35;7.03;;;;;;;18.13;76.45;102006.66;5048308;28;20080;-85
2021/08/27 08:22:22;;;;;;;16.95;6.60;;;;;;;18.19;76.20;102008.81;5067756;28;20045;-85
2021/08/27 08:24:49;;;;;;;11.32;5.05;;;;;;;18.29;75.92;102009.41;5052084;28;20037;-90
2021/08/27 08:27:17;;;;;;;14.18;5.20;;;;;;;18.35;75.69;102010.75;5066612;28;20049;-83
2021/08/27 08:29:44;;;;;;;36.35;8.23;;;;;;;18.35;75.22;102017.16;5050825;28;20600;-83
2021/08/27 08:32:10;;;;;;;7.82;5.35;;;;;;;18.37;74.92;102014.00;5037579;28;20729;-83
2021/08/27 08:34:37;;;;;;;16.05;6.22;;;;;;;18.51;75.00;102017.94;5049868;28;20065;-84
2021/08/27 08:37:07;;;;;;;8.52;4.50;;;;;;;18.79;76.79;102012.13;5043449;28;20037;-82
2021/08/27 08:39:37;;;;;;;10.27;5.05;;;;;;;19.19;77.35;102015.31;5054208;28;20036;-85
2021/08/27 08:42:05;;;;;;;9.23;5.10;;;;;;;19.60;77.45;102013.66;5048737;28;20765;-85
2021/08/27 08:44:33;;;;;;;10.40;5.20;;;;;;;19.97;76.11;102027.88;5062051;28;20037;-84
2021/08/27 08:47:02;;;;;;;10.00;4.43;;;;;;;20.20;73.45;102013.78;5046347;28;20421;-84
2021/08/27 08:49:33;;;;;;;11.68;4.63;;;;;;;20.45;71.88;102027.03;5049560;28;20454;-85
2021/08/27 08:52:01;;;;;;;10.68;5.25;;;;;;;20.63;71.21;102016.81;5056241;28;20127;-83
2021/08/27 08:54:29;;;;;;;11.30;5.13;;;;;;;20.84;69.73;102019.06;5052566;28;20043;-84
2021/08/27 08:56:57;;;;;;;9.10;5.00;;;;;;;21.33;68.45;102012.38;5059086;28;20123;-84
2021/08/27 08:59:25;;;;;;;6.72;4.30;;;;;;;21.53;67.66;102019.38;5058787;28;20375;-84
2021/08/27 09:01:51;;;;;;;13.13;4.53;;;;;;;21.95;66.46;102014.13;5049154;28;20422;-84
2021/08/27 09:04:24;;;;;;;6.65;3.83;;;;;;;22.40;65.71;102016.41;5046664;28;20086;-85
2021/08/27 09:06:51;;;;;;;16.02;6.57;;;;;;;22.61;64.21;102010.06;5050713;28;20045;-86
2021/08/27 09:09:33;;;;;;;9.13;4.63;;;;;;;22.84;62.31;102009.78;5050475;28;20155;-85
2021/08/27 09:12:00;;;;;;;;;;;;;;;22.86;62.34;102021.47;5047496;28;20073;-83
2021/08/27 09:14:29;;;;;;;12.35;4.38;;;;;;;22.53;63.56;102016.09;5050241;28;20282;-84
2021/08/27 09:17:04;;;;;;;7.32;4.10;;;;;;;22.31;61.77;102018.81;5049402;28;20037;-86
2021/08/27 09:19:54;;;;;;;8.45;4.07;;;;;;;22.13;61.42;102014.25;5043409;28;20045;-85
2021/08/27 09:22:21;;;;;;;10.10;4.18;;;;;;;21.85;61.80;102020.47;5041620;28;20555;-86
2021/08/27 09:25:08;;;;;;;10.25;4.07;;;;;;;21.72;61.88;102013.53;5059158;28;20368;-83
2021/08/27 09:27:58;;;;;;;9.30;4.50;;;;;;;21.50;62.08;102015.34;5053455;28;20506;-86
2021/08/27 09:30:25;;;;;;;8.60;4.40;;;;;;;21.21;62.62;102011.44;5064627;28;20055;-86
2021/08/27 09:32:54;;;;;;;8.35;3.95;;;;;;;21.57;62.62;102014.59;5048697;28;20048;-85
2021/08/27 09:35:23;;;;;;;15.07;4.80;;;;;;;21.51;62.35;102008.53;5049983;28;20045;-85
2021/08/27 09:37:54;;;;;;;8.38;4.25;;;;;;;21.30;62.38;102011.16;5032915;28;20056;-85
2021/08/27 09:40:26;;;;;;;10.48;4.63;;;;;;;21.60;62.22;102013.84;5038988;28;20037;-86
2021/08/27 09:42:53;;;;;;;;;;;;;;;22.13;61.69;102011.44;5051067;28;20491;-84
2021/08/27 09:45:41;;;;;;;10.52;4.18;;;;;;;22.32;61.61;102011.13;5049016;28;19972;-85
2021/08/27 09:48:10;;;;;;;8.98;5.05;;;;;;;22.49;60.97;102015.25;5055358;28;21388;-85
2021/08/27 09:50:41;;;;;;;8.88;4.47;;;;;;;22.87;60.39;102015.44;5053970;28;20044;-86
2021/08/27 09:53:09;;;;;;;7.97;4.38;;;;;;;23.19;59.88;102015.53;5061427;28;20880;-93
2021/08/27 09:55:38;;;;;;;8.70;4.50;;;;;;;23.28;59.24;102021.59;5030626;28;20053;-85
2021/08/27 09:58:10;;;;;;;11.25;4.32;;;;;;;22.94;58.98;102023.13;5045178;28;20043;-89
2021/08/27 10:00:40;;;;;;;7.25;4.10;;;;;;;22.66;58.87;102025.84;5069583;28;20071;-92
2021/08/27 10:03:20;;;;;;;9.32;4.60;;;;;;;23.07;57.66;102024.38;5050258;28;20047;-90
2021/08/27 10:05:49;;;;;;;9.82;4.00;;;;;;;23.37;57.99;102029.72;5067284;28;20551;-91
2021/08/27 10:08:33;;;;;;;9.75;4.65;;;;;;;23.57;56.38;102028.91;5056703;28;20044;-89
2021/08/27 10:11:21;;;;;;;9.13;4.30;;;;;;;23.42;56.26;102032.94;5058404;28;20032;-91
2021/08/27 10:13:48;;;;;;;11.70;4.60;;;;;;;23.49;56.67;102027.28;5063990;28;20036;-90
2021/08/27 10:16:15;;;;;;;15.73;4.68;;;;;;;23.23;56.35;102029.66;5055339;28;20049;-90
2021/08/27 10:18:43;;;;;;;10.48;4.50;;;;;;;23.32;56.20;102025.25;5075951;28;20048;-91
2021/08/27 10:21:09;;;;;;;8.00;4.20;;;;;;;23.53;56.25;102025.28;5058386;28;20489;-89
2021/08/27 10:23:36;;;;;;;7.20;4.35;;;;;;;23.89;55.91;102028.91;5073509;28;20036;-93
2021/08/27 10:26:18;;;;;;;9.38;3.53;;;;;;;24.15;53.74;102034.16;5066744;28;20395;-91
2021/08/27 10:28:46;;;;;;;10.52;4.55;;;;;;;24.34;55.15;102029.25;5056515;28;20099;-90
2021/08/27 10:31:14;;;;;;;7.95;4.65;;;;;;;24.39;54.33;102032.47;5053946;28;20045;-93
2021/08/27 10:33:41;;;;;;;10.57;4.40;;;;;;;24.22;53.74;102034.13;5065815;28;20091;-89
2021/08/27 10:36:31;;;;;;;8.52;4.22;;;;;;;24.06;53.76;102030.91;5070383;28;20045;-88
2021/08/27 10:38:59;;;;;;;8.27;4.40;;;;;;;24.06;53.89;102030.91;5068951;28;20080;-89
2021/08/27 10:41:32;;;;;;;10.30;4.43;;;;;;;24.09;53.47;102032.16;5065698;28;20028;-91
2021/08/27 10:44:15;;;;;;;9.73;4.15;;;;;;;24.10;53.05;102026.09;5064361;28;20041;-88
2021/08/27 10:47:06;;;;;;;7.22;4.07;;;;;;;24.07;53.13;102024.03;5049766;28;20037;-91
2021/08/27 10:49:44;;;;;;;9.38;3.63;;;;;;;23.91;53.38;102026.47;5061850;28;20041;-91
2021/08/27 10:52:38;;;;;;;8.77;4.57;;;;;;;23.71;52.89;102018.81;5056077;28;20073;-91
2021/08/27 10:55:08;;;;;;;11.18;3.97;;;;;;;23.55;53.79;102033.34;5046677;28;20055;-91
2021/08/27 10:57:43;;;;;;;9.23;3.80;;;;;;;23.50;53.43;102031.75;5065505;28;20032;-91
2021/08/27 11:00:11;;;;;;;11.23;4.20;;;;;;;23.26;54.05;102029.66;5072997;28;20048;-89
2021/08/27 11:02:52;;;;;;;12.15;4.50;;;;;;;23.15;52.89;102025.19;5055797;28;20037;-88
2021/08/27 11:05:43;;;;;;;8.85;4.88;;;;;;;22.99;54.71;102022.72;5075087;28;20043;-89
2021/08/27 11:08:15;;;;;;;8.73;4.55;;;;;;;22.87;54.96;102018.28;5048165;28;20033;-91
2021/08/27 11:11:17;;;;;;;9.60;4.85;;;;;;;22.67;54.96;102016.97;5040792;28;20072;-90
2021/08/27 11:13:44;;;;;;;11.05;3.83;;;;;;;22.65;55.09;102010.13;5041429;28;20049;-92
2021/08/27 11:16:20;;;;;;;8.60;4.07;;;;;;;22.53;55.25;102011.22;5039971;28;20598;-89
2021/08/27 11:18:49;;;;;;;9.23;4.18;;;;;;;22.32;55.90;102017.56;5052519;28;20029;-93
2021/08/27 11:21:35;;;;;;;8.23;4.30;;;;;;;22.08;55.61;102015.41;5058175;28;20040;-90
2021/08/27 11:24:20;;;;;;;8.23;5.00;;;;;;;21.78;56.62;102015.59;5052811;28;20464;-91
2021/08/27 11:26:56;;;;;;;11.00;4.25;;;;;;;21.68;56.75;102018.34;5052977;28;20055;-89
2021/08/27 11:29:39;;;;;;;10.90;4.53;;;;;;;21.57;57.03;102023.06;5052089;28;20645;-86